CheckWX is a tool to help pilots better visualize weather data.  It is not intended as a substitute for an official pre-flight weather briefing.

04:20:20 UTC

KMNE METAR
Minden Airport
Minden, Louisiana, USA
Current

25 mins ago

KMNE 020355Z AUTO 00000KT 10SM CLR 21/19 A3012 RMK AO2 T02120187
Observed
Jun-2 @ 03:55 UTC
Visibility
Flight Rules
VFR
Cloud Levels
  • Clear skies
Temperature
21°C / 70°F
Dewpoint
19°C / 66°F
Humidity
88%
Altimeter
30.12" Hg
Pressure
1020.02 hPa
Previous

45 mins ago

KMNE 020335Z AUTO 00000KT 10SM CLR 22/19 A3012 RMK AO2 T02210185
Observed
Jun-2 @ 03:35 UTC
Visibility
Flight Rules
VFR
Cloud Levels
  • Clear skies
Temperature
22°C / 72°F
Dewpoint
18°C / 64°F
Humidity
78%
Altimeter
30.12" Hg
Pressure
1020.02 hPa
Previous

1 hour ago

KMNE 020315Z AUTO 00000KT 10SM CLR 23/18 A3012 RMK AO2 T02250182
Observed
Jun-2 @ 03:15 UTC
Visibility
Flight Rules
VFR
Cloud Levels
  • Clear skies
Temperature
22°C / 72°F
Dewpoint
18°C / 64°F
Humidity
78%
Altimeter
30.12" Hg
Pressure
1020.02 hPa